sensor_id;sensor_type;location;lat;lon;timestamp;temperature;humidity
46676;DHT22;32412;51.478;5.694;2022-12-29T00:01:36;10.60;99.90
46676;DHT22;32412;51.478;5.694;2022-12-29T00:04:03;10.60;99.90
46676;DHT22;32412;51.478;5.694;2022-12-29T00:06:29;10.60;99.90
46676;DHT22;32412;51.478;5.694;2022-12-29T00:08:55;10.60;99.90
46676;DHT22;32412;51.478;5.694;2022-12-29T00:11:23;10.50;99.90
46676;DHT22;32412;51.478;5.694;2022-12-29T00:13:49;10.60;99.90
46676;DHT22;32412;51.478;5.694;2022-12-29T00:16:35;10.50;99.90
46676;DHT22;32412;51.478;5.694;2022-12-29T00:19:01;10.60;99.90
46676;DHT22;32412;51.478;5.694;2022-12-29T00:21:27;10.60;99.90
46676;DHT22;32412;51.478;5.694;2022-12-29T00:24:17;10.60;99.90
46676;DHT22;32412;51.478;5.694;2022-12-29T00:26:57;10.60;99.90
46676;DHT22;32412;51.478;5.694;2022-12-29T00:29:41;10.60;99.90
46676;DHT22;32412;51.478;5.694;2022-12-29T00:32:26;10.60;99.90
46676;DHT22;32412;51.478;5.694;2022-12-29T00:35:14;10.60;99.90
46676;DHT22;32412;51.478;5.694;2022-12-29T00:37:42;10.60;99.90
46676;DHT22;32412;51.478;5.694;2022-12-29T00:40:27;10.60;99.90
46676;DHT22;32412;51.478;5.694;2022-12-29T00:43:12;10.60;99.90
46676;DHT22;32412;51.478;5.694;2022-12-29T00:45:55;10.60;99.90
46676;DHT22;32412;51.478;5.694;2022-12-29T00:48:21;10.70;99.90
46676;DHT22;32412;51.478;5.694;2022-12-29T00:51:06;10.70;99.90
46676;DHT22;32412;51.478;5.694;2022-12-29T00:53:32;10.70;99.90
46676;DHT22;32412;51.478;5.694;2022-12-29T00:55:58;10.70;99.90
46676;DHT22;32412;51.478;5.694;2022-12-29T00:58:27;10.70;99.90
46676;DHT22;32412;51.478;5.694;2022-12-29T01:01:00;10.80;99.90
46676;DHT22;32412;51.478;5.694;2022-12-29T01:03:25;10.80;99.90
46676;DHT22;32412;51.478;5.694;2022-12-29T01:05:51;10.80;99.90
46676;DHT22;32412;51.478;5.694;2022-12-29T01:08:16;10.80;99.90
46676;DHT22;32412;51.478;5.694;2022-12-29T01:10:42;10.70;99.90
46676;DHT22;32412;51.478;5.694;2022-12-29T01:13:07;10.70;99.90
46676;DHT22;32412;51.478;5.694;2022-12-29T01:15:33;10.80;99.90
46676;DHT22;32412;51.478;5.694;2022-12-29T01:17:59;10.80;99.90
46676;DHT22;32412;51.478;5.694;2022-12-29T01:20:24;10.80;99.90
46676;DHT22;32412;51.478;5.694;2022-12-29T01:22:50;10.80;99.90
46676;DHT22;32412;51.478;5.694;2022-12-29T01:25:16;10.80;99.90
46676;DHT22;32412;51.478;5.694;2022-12-29T01:27:41;10.80;99.90
46676;DHT22;32412;51.478;5.694;2022-12-29T01:30:08;10.90;99.90
46676;DHT22;32412;51.478;5.694;2022-12-29T01:32:34;10.90;99.90
46676;DHT22;32412;51.478;5.694;2022-12-29T01:34:59;10.90;99.90
46676;DHT22;32412;51.478;5.694;2022-12-29T01:37:25;10.90;99.90
46676;DHT22;32412;51.478;5.694;2022-12-29T01:39:51;10.90;99.90
46676;DHT22;32412;51.478;5.694;2022-12-29T01:42:18;11.00;99.90
46676;DHT22;32412;51.478;5.694;2022-12-29T01:47:22;10.90;99.90
46676;DHT22;32412;51.478;5.694;2022-12-29T01:49:53;11.00;99.90
46676;DHT22;32412;51.478;5.694;2022-12-29T01:52:20;11.00;99.90
46676;DHT22;32412;51.478;5.694;2022-12-29T01:54:51;11.10;99.90
46676;DHT22;32412;51.478;5.694;2022-12-29T01:57:22;11.10;99.90
46676;DHT22;32412;51.478;5.694;2022-12-29T01:59:55;11.10;99.90
46676;DHT22;32412;51.478;5.694;2022-12-29T02:02:23;11.10;99.90
46676;DHT22;32412;51.478;5.694;2022-12-29T02:04:50;11.20;99.90
46676;DHT22;32412;51.478;5.694;2022-12-29T02:07:19;11.30;99.90
46676;DHT22;32412;51.478;5.694;2022-12-29T02:09:50;11.30;99.90
46676;DHT22;32412;51.478;5.694;2022-12-29T02:12:20;11.20;99.90
46676;DHT22;32412;51.478;5.694;2022-12-29T02:14:47;11.30;99.90
46676;DHT22;32412;51.478;5.694;2022-12-29T02:17:25;11.30;99.90
46676;DHT22;32412;51.478;5.694;2022-12-29T02:20:05;11.40;99.90
46676;DHT22;32412;51.478;5.694;2022-12-29T02:23:02;11.40;99.90
46676;DHT22;32412;51.478;5.694;2022-12-29T02:33:47;11.30;99.90
46676;DHT22;32412;51.478;5.694;2022-12-29T02:39:02;11.30;99.90
46676;DHT22;32412;51.478;5.694;2022-12-29T02:41:53;11.30;99.90
46676;DHT22;32412;51.478;5.694;2022-12-29T02:52:36;11.30;99.90
46676;DHT22;32412;51.478;5.694;2022-12-29T02:55:04;11.30;99.90
46676;DHT22;32412;51.478;5.694;2022-12-29T02:57:34;11.30;99.90
46676;DHT22;32412;51.478;5.694;2022-12-29T03:13:08;11.20;99.90
46676;DHT22;32412;51.478;5.694;2022-12-29T03:16:18;11.20;99.90
46676;DHT22;32412;51.478;5.694;2022-12-29T03:19:07;11.20;99.90
46676;DHT22;32412;51.478;5.694;2022-12-29T03:24:26;11.10;99.90
46676;DHT22;32412;51.478;5.694;2022-12-29T03:26:56;11.00;99.90
46676;DHT22;32412;51.478;5.694;2022-12-29T03:29:24;10.90;99.90
46676;DHT22;32412;51.478;5.694;2022-12-29T03:31:51;10.80;99.90
46676;DHT22;32412;51.478;5.694;2022-12-29T03:34:20;10.70;99.90
46676;DHT22;32412;51.478;5.694;2022-12-29T03:36:54;10.60;99.90
46676;DHT22;32412;51.478;5.694;2022-12-29T03:39:23;10.50;99.90
46676;DHT22;32412;51.478;5.694;2022-12-29T03:41:53;10.40;99.90
46676;DHT22;32412;51.478;5.694;2022-12-29T03:44:21;10.40;99.90
46676;DHT22;32412;51.478;5.694;2022-12-29T03:46:46;10.40;99.90
46676;DHT22;32412;51.478;5.694;2022-12-29T03:49:12;10.40;99.90
46676;DHT22;32412;51.478;5.694;2022-12-29T03:51:38;10.40;99.90
46676;DHT22;32412;51.478;5.694;2022-12-29T03:54:03;10.40;99.90
46676;DHT22;32412;51.478;5.694;2022-12-29T03:56:29;10.40;99.90
46676;DHT22;32412;51.478;5.694;2022-12-29T03:58:55;10.40;99.90
46676;DHT22;32412;51.478;5.694;2022-12-29T04:01:20;10.30;99.90
46676;DHT22;32412;51.478;5.694;2022-12-29T04:03:46;10.40;99.90
46676;DHT22;32412;51.478;5.694;2022-12-29T04:06:11;10.30;99.90
46676;DHT22;32412;51.478;5.694;2022-12-29T04:08:37;10.30;99.90
46676;DHT22;32412;51.478;5.694;2022-12-29T04:11:03;10.30;99.90
46676;DHT22;32412;51.478;5.694;2022-12-29T04:13:29;10.30;99.90
46676;DHT22;32412;51.478;5.694;2022-12-29T04:16:01;10.30;99.90
46676;DHT22;32412;51.478;5.694;2022-12-29T04:18:26;10.30;99.90
46676;DHT22;32412;51.478;5.694;2022-12-29T04:20:52;10.20;99.90
46676;DHT22;32412;51.478;5.694;2022-12-29T04:23:29;10.10;99.90
46676;DHT22;32412;51.478;5.694;2022-12-29T04:25:55;10.00;99.90
46676;DHT22;32412;51.478;5.694;2022-12-29T04:28:21;9.90;99.90
46676;DHT22;32412;51.478;5.694;2022-12-29T04:30:46;9.80;99.90
46676;DHT22;32412;51.478;5.694;2022-12-29T04:33:13;9.70;99.90
46676;DHT22;32412;51.478;5.694;2022-12-29T04:35:39;9.70;99.90
46676;DHT22;32412;51.478;5.694;2022-12-29T04:38:04;9.70;99.90
46676;DHT22;32412;51.478;5.694;2022-12-29T04:40:30;9.60;99.90
46676;DHT22;32412;51.478;5.694;2022-12-29T04:42:56;9.60;99.90
46676;DHT22;32412;51.478;5.694;2022-12-29T04:45:22;9.70;99.90
46676;DHT22;32412;51.478;5.694;2022-12-29T04:47:47;9.70;99.90
46676;DHT22;32412;51.478;5.694;2022-12-29T04:50:13;9.80;99.90
46676;DHT22;32412;51.478;5.694;2022-12-29T04:52:38;9.90;99.90
46676;DHT22;32412;51.478;5.694;2022-12-29T04:55:05;9.90;99.90
46676;DHT22;32412;51.478;5.694;2022-12-29T04:57:31;9.90;99.90
46676;DHT22;32412;51.478;5.694;2022-12-29T04:59:56;9.90;99.90
46676;DHT22;32412;51.478;5.694;2022-12-29T05:02:22;9.90;99.90
46676;DHT22;32412;51.478;5.694;2022-12-29T05:04:48;9.90;99.90
46676;DHT22;32412;51.478;5.694;2022-12-29T05:07:14;9.80;99.90
46676;DHT22;32412;51.478;5.694;2022-12-29T05:09:40;9.80;99.90
46676;DHT22;32412;51.478;5.694;2022-12-29T05:12:05;9.80;99.90
46676;DHT22;32412;51.478;5.694;2022-12-29T05:14:31;9.70;99.90
46676;DHT22;32412;51.478;5.694;2022-12-29T05:16:57;9.70;99.90
46676;DHT22;32412;51.478;5.694;2022-12-29T05:19:23;9.70;99.90
46676;DHT22;32412;51.478;5.694;2022-12-29T05:21:48;9.60;99.90
46676;DHT22;32412;51.478;5.694;2022-12-29T05:24:14;9.60;99.90
46676;DHT22;32412;51.478;5.694;2022-12-29T05:26:40;9.50;99.90
46676;DHT22;32412;51.478;5.694;2022-12-29T05:29:06;9.50;99.90
46676;DHT22;32412;51.478;5.694;2022-12-29T05:31:32;9.50;99.90
46676;DHT22;32412;51.478;5.694;2022-12-29T05:33:58;9.60;99.90
46676;DHT22;32412;51.478;5.694;2022-12-29T05:36:24;9.70;99.90
46676;DHT22;32412;51.478;5.694;2022-12-29T05:38:50;9.60;99.90
46676;DHT22;32412;51.478;5.694;2022-12-29T05:41:15;9.70;99.90
46676;DHT22;32412;51.478;5.694;2022-12-29T05:43:41;9.80;99.90
46676;DHT22;32412;51.478;5.694;2022-12-29T05:46:07;9.80;99.90
46676;DHT22;32412;51.478;5.694;2022-12-29T05:48:32;9.80;99.90
46676;DHT22;32412;51.478;5.694;2022-12-29T05:50:58;9.80;99.90
46676;DHT22;32412;51.478;5.694;2022-12-29T05:53:24;9.80;99.90
46676;DHT22;32412;51.478;5.694;2022-12-29T05:55:49;9.80;99.90
46676;DHT22;32412;51.478;5.694;2022-12-29T05:58:16;9.90;99.90
46676;DHT22;32412;51.478;5.694;2022-12-29T06:00:42;9.90;99.90
46676;DHT22;32412;51.478;5.694;2022-12-29T06:03:08;9.90;99.90
46676;DHT22;32412;51.478;5.694;2022-12-29T06:05:33;9.90;99.90
46676;DHT22;32412;51.478;5.694;2022-12-29T06:07:59;10.00;99.90
46676;DHT22;32412;51.478;5.694;2022-12-29T06:10:25;10.00;99.90
46676;DHT22;32412;51.478;5.694;2022-12-29T06:12:51;10.00;99.90
46676;DHT22;32412;51.478;5.694;2022-12-29T06:15:17;10.00;99.90
46676;DHT22;32412;51.478;5.694;2022-12-29T06:17:43;10.00;99.90
46676;DHT22;32412;51.478;5.694;2022-12-29T06:20:09;10.00;99.90
46676;DHT22;32412;51.478;5.694;2022-12-29T06:22:36;10.10;99.90
46676;DHT22;32412;51.478;5.694;2022-12-29T06:25:02;10.20;99.90
46676;DHT22;32412;51.478;5.694;2022-12-29T06:27:28;10.30;99.90
46676;DHT22;32412;51.478;5.694;2022-12-29T06:29:54;10.40;99.90
46676;DHT22;32412;51.478;5.694;2022-12-29T06:32:20;10.40;99.90
46676;DHT22;32412;51.478;5.694;2022-12-29T06:34:46;10.50;99.90
46676;DHT22;32412;51.478;5.694;2022-12-29T06:37:11;10.50;99.90
46676;DHT22;32412;51.478;5.694;2022-12-29T06:39:37;10.50;99.90
46676;DHT22;32412;51.478;5.694;2022-12-29T06:42:03;10.50;99.90
46676;DHT22;32412;51.478;5.694;2022-12-29T06:44:29;10.60;99.90
46676;DHT22;32412;51.478;5.694;2022-12-29T06:46:55;10.50;99.90
46676;DHT22;32412;51.478;5.694;2022-12-29T06:49:21;10.50;99.90
46676;DHT22;32412;51.478;5.694;2022-12-29T06:51:47;10.50;99.90
46676;DHT22;32412;51.478;5.694;2022-12-29T06:54:12;10.50;99.90
46676;DHT22;32412;51.478;5.694;2022-12-29T06:56:38;10.50;99.90
46676;DHT22;32412;51.478;5.694;2022-12-29T06:59:04;10.40;99.90
46676;DHT22;32412;51.478;5.694;2022-12-29T07:01:30;10.50;99.90
46676;DHT22;32412;51.478;5.694;2022-12-29T07:03:55;10.40;99.90
46676;DHT22;32412;51.478;5.694;2022-12-29T07:06:21;10.50;99.90
46676;DHT22;32412;51.478;5.694;2022-12-29T07:08:47;10.50;99.90
46676;DHT22;32412;51.478;5.694;2022-12-29T07:11:12;10.60;99.90
46676;DHT22;32412;51.478;5.694;2022-12-29T07:13:38;10.50;99.90
46676;DHT22;32412;51.478;5.694;2022-12-29T07:16:08;10.40;99.90
46676;DHT22;32412;51.478;5.694;2022-12-29T07:18:34;10.30;99.90
46676;DHT22;32412;51.478;5.694;2022-12-29T07:21:01;10.50;99.90
46676;DHT22;32412;51.478;5.694;2022-12-29T07:23:27;10.50;99.90
46676;DHT22;32412;51.478;5.694;2022-12-29T07:26:00;10.60;99.90
46676;DHT22;32412;51.478;5.694;2022-12-29T07:28:26;10.50;99.90
46676;DHT22;32412;51.478;5.694;2022-12-29T07:30:52;10.50;99.90
46676;DHT22;32412;51.478;5.694;2022-12-29T07:33:18;10.50;99.90
46676;DHT22;32412;51.478;5.694;2022-12-29T07:35:43;10.60;99.90
46676;DHT22;32412;51.478;5.694;2022-12-29T07:38:09;10.60;99.90
46676;DHT22;32412;51.478;5.694;2022-12-29T07:40:35;10.60;99.90
46676;DHT22;32412;51.478;5.694;2022-12-29T07:43:00;10.50;99.90
46676;DHT22;32412;51.478;5.694;2022-12-29T07:45:26;10.60;99.90
46676;DHT22;32412;51.478;5.694;2022-12-29T07:47:52;10.60;99.90
46676;DHT22;32412;51.478;5.694;2022-12-29T07:50:18;10.70;99.90
46676;DHT22;32412;51.478;5.694;2022-12-29T07:52:44;10.80;99.90
46676;DHT22;32412;51.478;5.694;2022-12-29T07:55:12;10.80;99.90
46676;DHT22;32412;51.478;5.694;2022-12-29T07:57:37;10.80;99.90
46676;DHT22;32412;51.478;5.694;2022-12-29T08:00:04;10.80;99.90
46676;DHT22;32412;51.478;5.694;2022-12-29T08:02:29;10.80;99.90
46676;DHT22;32412;51.478;5.694;2022-12-29T08:04:55;10.80;99.90
46676;DHT22;32412;51.478;5.694;2022-12-29T08:07:21;10.80;99.90
46676;DHT22;32412;51.478;5.694;2022-12-29T08:09:47;10.90;99.90
46676;DHT22;32412;51.478;5.694;2022-12-29T08:12:12;10.90;99.90
46676;DHT22;32412;51.478;5.694;2022-12-29T08:14:38;10.90;99.90
46676;DHT22;32412;51.478;5.694;2022-12-29T08:17:03;10.90;99.90
46676;DHT22;32412;51.478;5.694;2022-12-29T08:19:29;10.90;99.90
46676;DHT22;32412;51.478;5.694;2022-12-29T08:21:55;10.90;99.90
46676;DHT22;32412;51.478;5.694;2022-12-29T08:24:21;11.00;99.90
46676;DHT22;32412;51.478;5.694;2022-12-29T08:26:46;11.00;99.90
46676;DHT22;32412;51.478;5.694;2022-12-29T08:29:12;11.10;99.90
46676;DHT22;32412;51.478;5.694;2022-12-29T08:31:38;11.10;99.90
46676;DHT22;32412;51.478;5.694;2022-12-29T08:34:03;11.10;99.90
46676;DHT22;32412;51.478;5.694;2022-12-29T08:36:30;11.10;99.90
46676;DHT22;32412;51.478;5.694;2022-12-29T08:38:56;11.10;99.90
46676;DHT22;32412;51.478;5.694;2022-12-29T08:41:22;11.10;99.90
46676;DHT22;32412;51.478;5.694;2022-12-29T08:43:49;11.00;99.90
46676;DHT22;32412;51.478;5.694;2022-12-29T08:46:15;11.10;99.90
46676;DHT22;32412;51.478;5.694;2022-12-29T08:48:42;11.00;99.90
46676;DHT22;32412;51.478;5.694;2022-12-29T08:51:08;11.00;99.90
46676;DHT22;32412;51.478;5.694;2022-12-29T08:53:33;11.10;99.90
46676;DHT22;32412;51.478;5.694;2022-12-29T08:56:00;11.10;99.90
46676;DHT22;32412;51.478;5.694;2022-12-29T08:58:26;11.10;99.90
46676;DHT22;32412;51.478;5.694;2022-12-29T09:00:57;11.10;99.90
46676;DHT22;32412;51.478;5.694;2022-12-29T09:03:24;11.10;99.90
46676;DHT22;32412;51.478;5.694;2022-12-29T09:05:51;11.10;99.90
46676;DHT22;32412;51.478;5.694;2022-12-29T09:08:17;11.20;99.90
46676;DHT22;32412;51.478;5.694;2022-12-29T09:10:43;11.20;99.90
46676;DHT22;32412;51.478;5.694;2022-12-29T09:13:10;11.20;99.90
46676;DHT22;32412;51.478;5.694;2022-12-29T09:15:36;11.20;99.90
46676;DHT22;32412;51.478;5.694;2022-12-29T09:18:02;11.20;99.90
46676;DHT22;32412;51.478;5.694;2022-12-29T09:20:27;11.20;99.90
46676;DHT22;32412;51.478;5.694;2022-12-29T09:22:53;11.20;99.90
46676;DHT22;32412;51.478;5.694;2022-12-29T09:25:19;11.30;99.90
46676;DHT22;32412;51.478;5.694;2022-12-29T09:27:45;11.40;99.90
46676;DHT22;32412;51.478;5.694;2022-12-29T09:30:11;11.40;99.90
46676;DHT22;32412;51.478;5.694;2022-12-29T09:32:37;11.40;99.90
46676;DHT22;32412;51.478;5.694;2022-12-29T09:35:04;11.40;99.90
46676;DHT22;32412;51.478;5.694;2022-12-29T09:37:29;11.40;99.90
46676;DHT22;32412;51.478;5.694;2022-12-29T09:39:55;11.40;99.90
46676;DHT22;32412;51.478;5.694;2022-12-29T09:42:41;11.30;99.90
46676;DHT22;32412;51.478;5.694;2022-12-29T09:45:31;11.30;99.90
46676;DHT22;32412;51.478;5.694;2022-12-29T09:47:58;11.30;99.90
46676;DHT22;32412;51.478;5.694;2022-12-29T09:50:35;11.20;99.90
46676;DHT22;32412;51.478;5.694;2022-12-29T09:53:19;11.20;99.90
46676;DHT22;32412;51.478;5.694;2022-12-29T09:55:50;11.20;99.90
46676;DHT22;32412;51.478;5.694;2022-12-29T09:58:39;11.10;99.90
46676;DHT22;32412;51.478;5.694;2022-12-29T10:01:28;11.10;99.90
46676;DHT22;32412;51.478;5.694;2022-12-29T10:03:57;10.90;99.90
46676;DHT22;32412;51.478;5.694;2022-12-29T10:06:49;10.80;99.90
46676;DHT22;32412;51.478;5.694;2022-12-29T10:17:59;10.60;99.90
46676;DHT22;32412;51.478;5.694;2022-12-29T10:23:40;10.30;99.90
46676;DHT22;32412;51.478;5.694;2022-12-29T10:26:15;10.20;99.90
46676;DHT22;32412;51.478;5.694;2022-12-29T10:28:56;10.10;99.90
46676;DHT22;32412;51.478;5.694;2022-12-29T10:31:25;10.00;99.90
46676;DHT22;32412;51.478;5.694;2022-12-29T10:33:58;9.90;99.90
46676;DHT22;32412;51.478;5.694;2022-12-29T10:36:33;9.90;99.90
46676;DHT22;32412;51.478;5.694;2022-12-29T10:39:25;9.80;99.90
46676;DHT22;32412;51.478;5.694;2022-12-29T10:44:18;9.60;99.90
46676;DHT22;32412;51.478;5.694;2022-12-29T10:46:57;9.60;99.90
46676;DHT22;32412;51.478;5.694;2022-12-29T10:49:25;9.60;99.90
46676;DHT22;32412;51.478;5.694;2022-12-29T10:51:55;9.60;99.90
46676;DHT22;32412;51.478;5.694;2022-12-29T10:57:05;9.70;99.90
46676;DHT22;32412;51.478;5.694;2022-12-29T10:59:35;9.70;99.90
46676;DHT22;32412;51.478;5.694;2022-12-29T11:06:56;9.80;99.90
46676;DHT22;32412;51.478;5.694;2022-12-29T11:09:28;9.70;99.90
46676;DHT22;32412;51.478;5.694;2022-12-29T11:11:55;9.60;99.90
46676;DHT22;32412;51.478;5.694;2022-12-29T11:14:31;9.60;99.90
46676;DHT22;32412;51.478;5.694;2022-12-29T11:17:02;9.60;99.90
46676;DHT22;32412;51.478;5.694;2022-12-29T11:19:30;9.60;99.90
46676;DHT22;32412;51.478;5.694;2022-12-29T11:22:22;9.70;99.90
46676;DHT22;32412;51.478;5.694;2022-12-29T11:24:51;10.00;99.90
46676;DHT22;32412;51.478;5.694;2022-12-29T11:27:20;10.40;99.90
46676;DHT22;32412;51.478;5.694;2022-12-29T11:29:49;10.70;99.90
46676;DHT22;32412;51.478;5.694;2022-12-29T11:32:24;10.70;99.90
46676;DHT22;32412;51.478;5.694;2022-12-29T11:34:50;10.70;99.90
46676;DHT22;32412;51.478;5.694;2022-12-29T11:37:20;10.70;99.90
46676;DHT22;32412;51.478;5.694;2022-12-29T11:40:18;10.80;99.90
46676;DHT22;32412;51.478;5.694;2022-12-29T11:45:16;10.80;99.90
46676;DHT22;32412;51.478;5.694;2022-12-29T11:47:53;10.70;99.90
46676;DHT22;32412;51.478;5.694;2022-12-29T11:50:26;10.80;99.90
46676;DHT22;32412;51.478;5.694;2022-12-29T11:55:30;11.00;99.90
46676;DHT22;32412;51.478;5.694;2022-12-29T11:57:59;10.90;99.90
46676;DHT22;32412;51.478;5.694;2022-12-29T12:00:27;10.90;99.90
46676;DHT22;32412;51.478;5.694;2022-12-29T12:03:13;11.00;99.90
46676;DHT22;32412;51.478;5.694;2022-12-29T12:05:47;11.20;99.90
46676;DHT22;32412;51.478;5.694;2022-12-29T12:08:33;11.10;99.90
46676;DHT22;32412;51.478;5.694;2022-12-29T12:11:09;11.20;99.90
46676;DHT22;32412;51.478;5.694;2022-12-29T12:16:13;11.20;99.90
46676;DHT22;32412;51.478;5.694;2022-12-29T12:18:47;11.30;99.90
46676;DHT22;32412;51.478;5.694;2022-12-29T12:21:23;11.50;99.90
46676;DHT22;32412;51.478;5.694;2022-12-29T12:26:35;11.60;99.90
46676;DHT22;32412;51.478;5.694;2022-12-29T12:29:24;11.40;99.90
46676;DHT22;32412;51.478;5.694;2022-12-29T12:32:09;11.40;99.90
46676;DHT22;32412;51.478;5.694;2022-12-29T12:34:42;11.30;99.90
46676;DHT22;32412;51.478;5.694;2022-12-29T12:42:33;11.20;99.90
46676;DHT22;32412;51.478;5.694;2022-12-29T12:53:49;11.40;99.90
46676;DHT22;32412;51.478;5.694;2022-12-29T12:59:21;11.50;99.90
46676;DHT22;32412;51.478;5.694;2022-12-29T13:02:22;11.40;99.90
46676;DHT22;32412;51.478;5.694;2022-12-29T13:10:46;11.30;99.90
46676;DHT22;32412;51.478;5.694;2022-12-29T13:13:43;11.40;99.90
46676;DHT22;32412;51.478;5.694;2022-12-29T13:22:06;11.20;99.90
46676;DHT22;32412;51.478;5.694;2022-12-29T13:25:01;11.20;99.90
46676;DHT22;32412;51.478;5.694;2022-12-29T13:30:29;11.10;99.90
46676;DHT22;32412;51.478;5.694;2022-12-29T13:33:20;11.00;99.90
46676;DHT22;32412;51.478;5.694;2022-12-29T13:36:22;10.90;99.90
46676;DHT22;32412;51.478;5.694;2022-12-29T13:38:56;10.90;99.90
46676;DHT22;32412;51.478;5.694;2022-12-29T13:41:33;10.60;99.90
46676;DHT22;32412;51.478;5.694;2022-12-29T13:44:02;10.30;99.90
46676;DHT22;32412;51.478;5.694;2022-12-29T13:46:35;9.90;99.90
46676;DHT22;32412;51.478;5.694;2022-12-29T13:49:21;9.70;99.90
46676;DHT22;32412;51.478;5.694;2022-12-29T13:51:58;9.50;99.90
46676;DHT22;32412;51.478;5.694;2022-12-29T14:07:42;9.00;99.90
46676;DHT22;32412;51.478;5.694;2022-12-29T14:10:31;9.00;99.90
46676;DHT22;32412;51.478;5.694;2022-12-29T14:13:13;8.90;99.90
46676;DHT22;32412;51.478;5.694;2022-12-29T14:15:42;8.90;99.90
46676;DHT22;32412;51.478;5.694;2022-12-29T14:18:18;8.90;99.90
46676;DHT22;32412;51.478;5.694;2022-12-29T14:21:00;8.90;99.90
46676;DHT22;32412;51.478;5.694;2022-12-29T14:23:37;9.00;99.90
46676;DHT22;32412;51.478;5.694;2022-12-29T14:28:36;9.10;99.90
46676;DHT22;32412;51.478;5.694;2022-12-29T14:36:41;9.10;99.90
46676;DHT22;32412;51.478;5.694;2022-12-29T14:39:29;9.10;99.90
46676;DHT22;32412;51.478;5.694;2022-12-29T14:42:18;9.10;99.90
46676;DHT22;32412;51.478;5.694;2022-12-29T14:44:53;9.10;99.90
46676;DHT22;32412;51.478;5.694;2022-12-29T14:47:34;9.20;99.90
46676;DHT22;32412;51.478;5.694;2022-12-29T14:50:25;9.30;99.90
46676;DHT22;32412;51.478;5.694;2022-12-29T14:52:57;9.30;99.90
46676;DHT22;32412;51.478;5.694;2022-12-29T14:55:46;9.30;99.90
46676;DHT22;32412;51.478;5.694;2022-12-29T14:58:32;9.40;99.90
46676;DHT22;32412;51.478;5.694;2022-12-29T15:01:00;9.40;99.90
46676;DHT22;32412;51.478;5.694;2022-12-29T15:06:15;9.50;99.90
46676;DHT22;32412;51.478;5.694;2022-12-29T15:11:20;9.50;99.90
46676;DHT22;32412;51.478;5.694;2022-12-29T15:13:46;9.50;99.90
46676;DHT22;32412;51.478;5.694;2022-12-29T15:16:30;9.50;99.90
46676;DHT22;32412;51.478;5.694;2022-12-29T15:18:57;9.50;99.90
46676;DHT22;32412;51.478;5.694;2022-12-29T15:21:30;9.50;99.90
46676;DHT22;32412;51.478;5.694;2022-12-29T15:23:56;9.40;99.90
46676;DHT22;32412;51.478;5.694;2022-12-29T15:26:23;9.50;99.90
46676;DHT22;32412;51.478;5.694;2022-12-29T15:28:51;9.40;99.90
46676;DHT22;32412;51.478;5.694;2022-12-29T15:31:22;9.40;99.90
46676;DHT22;32412;51.478;5.694;2022-12-29T15:33:51;9.30;99.90
46676;DHT22;32412;51.478;5.694;2022-12-29T15:36:24;9.30;99.90
46676;DHT22;32412;51.478;5.694;2022-12-29T15:38:50;9.20;99.90
46676;DHT22;32412;51.478;5.694;2022-12-29T15:41:24;9.20;99.90
46676;DHT22;32412;51.478;5.694;2022-12-29T15:46:17;9.00;99.90
46676;DHT22;32412;51.478;5.694;2022-12-29T15:48:43;9.00;99.90
46676;DHT22;32412;51.478;5.694;2022-12-29T15:51:20;9.00;99.90
46676;DHT22;32412;51.478;5.694;2022-12-29T15:53:48;8.90;99.90
46676;DHT22;32412;51.478;5.694;2022-12-29T15:56:15;8.90;99.90
46676;DHT22;32412;51.478;5.694;2022-12-29T15:58:50;8.80;99.90
46676;DHT22;32412;51.478;5.694;2022-12-29T16:01:36;8.80;99.90
46676;DHT22;32412;51.478;5.694;2022-12-29T16:04:07;8.70;99.90
46676;DHT22;32412;51.478;5.694;2022-12-29T16:06:38;8.60;99.90
46676;DHT22;32412;51.478;5.694;2022-12-29T16:09:13;8.50;99.90
46676;DHT22;32412;51.478;5.694;2022-12-29T16:12:06;8.50;99.90
46676;DHT22;32412;51.478;5.694;2022-12-29T16:14:48;8.40;99.90
46676;DHT22;32412;51.478;5.694;2022-12-29T16:17:17;8.30;99.90
46676;DHT22;32412;51.478;5.694;2022-12-29T16:19:51;8.30;99.90
46676;DHT22;32412;51.478;5.694;2022-12-29T16:22:28;8.30;99.90
46676;DHT22;32412;51.478;5.694;2022-12-29T16:25:04;8.40;99.90
46676;DHT22;32412;51.478;5.694;2022-12-29T16:27:41;8.30;99.90
46676;DHT22;32412;51.478;5.694;2022-12-29T16:32:51;8.30;99.90
46676;DHT22;32412;51.478;5.694;2022-12-29T16:35:18;8.30;99.90
46676;DHT22;32412;51.478;5.694;2022-12-29T16:37:45;8.20;99.90
46676;DHT22;32412;51.478;5.694;2022-12-29T16:40:29;8.20;99.90
46676;DHT22;32412;51.478;5.694;2022-12-29T16:43:03;8.10;99.90
46676;DHT22;32412;51.478;5.694;2022-12-29T16:50:42;8.10;99.90
46676;DHT22;32412;51.478;5.694;2022-12-29T16:53:21;8.10;99.90
46676;DHT22;32412;51.478;5.694;2022-12-29T16:55:50;8.10;99.90
46676;DHT22;32412;51.478;5.694;2022-12-29T16:58:21;8.00;99.90
46676;DHT22;32412;51.478;5.694;2022-12-29T17:00:48;8.00;99.90
46676;DHT22;32412;51.478;5.694;2022-12-29T17:03:14;8.10;99.90
46676;DHT22;32412;51.478;5.694;2022-12-29T17:05:40;8.20;99.90
46676;DHT22;32412;51.478;5.694;2022-12-29T17:08:20;8.20;99.90
46676;DHT22;32412;51.478;5.694;2022-12-29T17:10:56;8.30;99.90
46676;DHT22;32412;51.478;5.694;2022-12-29T17:13:40;8.30;99.90
46676;DHT22;32412;51.478;5.694;2022-12-29T17:16:07;8.30;99.90
46676;DHT22;32412;51.478;5.694;2022-12-29T17:18:34;8.30;99.90
46676;DHT22;32412;51.478;5.694;2022-12-29T17:21:01;8.20;99.90
46676;DHT22;32412;51.478;5.694;2022-12-29T17:23:27;8.20;99.90
46676;DHT22;32412;51.478;5.694;2022-12-29T17:25:55;8.20;99.90
46676;DHT22;32412;51.478;5.694;2022-12-29T17:28:31;8.20;99.90
46676;DHT22;32412;51.478;5.694;2022-12-29T17:31:02;8.10;99.90
46676;DHT22;32412;51.478;5.694;2022-12-29T17:33:30;8.10;99.90
46676;DHT22;32412;51.478;5.694;2022-12-29T17:35:57;8.10;99.90
46676;DHT22;32412;51.478;5.694;2022-12-29T17:38:30;8.00;99.90
46676;DHT22;32412;51.478;5.694;2022-12-29T17:40:56;8.00;99.90
46676;DHT22;32412;51.478;5.694;2022-12-29T17:43:22;8.00;99.90
46676;DHT22;32412;51.478;5.694;2022-12-29T17:45:52;8.00;99.90
46676;DHT22;32412;51.478;5.694;2022-12-29T17:48:19;7.90;99.90
46676;DHT22;32412;51.478;5.694;2022-12-29T17:50:49;7.90;99.90
46676;DHT22;32412;51.478;5.694;2022-12-29T17:53:20;7.80;99.90
46676;DHT22;32412;51.478;5.694;2022-12-29T17:55:47;7.90;99.90
46676;DHT22;32412;51.478;5.694;2022-12-29T17:58:24;7.90;99.90
46676;DHT22;32412;51.478;5.694;2022-12-29T18:00:52;7.80;99.90
46676;DHT22;32412;51.478;5.694;2022-12-29T18:03:26;7.90;99.90
46676;DHT22;32412;51.478;5.694;2022-12-29T18:05:52;7.80;99.90
46676;DHT22;32412;51.478;5.694;2022-12-29T18:08:18;7.80;99.90
46676;DHT22;32412;51.478;5.694;2022-12-29T18:10:44;7.70;99.90
46676;DHT22;32412;51.478;5.694;2022-12-29T18:13:30;7.70;99.90
46676;DHT22;32412;51.478;5.694;2022-12-29T18:15:57;7.70;99.90
46676;DHT22;32412;51.478;5.694;2022-12-29T18:18:25;7.70;99.90